Time;durP1;ratioP1;P1;durP2;ratioP2;P2;SDS_P1;SDS_P2;PMS_P1;PMS_P2;Temp;Humidity;BMP_temperature;BMP_pressure;BME280_temperature;BME280_humidity;BME280_pressure;Samples;Min_cycle;Max_cycle;Signal;HPM_P1;HPM_P2
2023/07/21 00:00:15;;;;;;;18.13;13.77;;;;;;;13.85;86.21;101215.06;4935482;29;20035;-52
2023/07/21 00:02:45;;;;;;;17.90;13.52;;;;;;;13.82;86.28;101207.16;4934058;29;20049;-52
2023/07/21 00:05:11;;;;;;;17.15;12.27;;;;;;;13.79;85.70;101207.97;4933704;29;20031;-52
2023/07/21 00:07:36;;;;;;;19.17;13.48;;;;;;;13.77;85.74;101200.94;4933124;29;20035;-52
2023/07/21 00:10:07;;;;;;;17.63;13.13;;;;;;;13.77;86.12;101203.56;4929444;29;20027;-52
2023/07/21 00:12:46;;;;;;;19.20;12.25;;;;;;;13.69;85.24;101201.69;4932976;29;20038;-52
2023/07/21 00:15:13;;;;;;;17.02;13.27;;;;;;;13.60;85.73;101201.56;4934188;29;20028;-52
2023/07/21 00:17:38;;;;;;;17.92;13.80;;;;;;;13.59;86.56;101204.16;4931338;29;20047;-51
2023/07/21 00:20:12;;;;;;;18.88;13.60;;;;;;;13.46;87.86;101195.19;4916179;29;20028;-52
2023/07/21 00:22:40;;;;;;;20.67;14.65;;;;;;;13.27;89.26;101199.19;4931082;29;20020;-52
2023/07/21 00:25:06;;;;;;;20.10;15.45;;;;;;;13.10;91.40;101197.13;4931348;29;20049;-52
2023/07/21 00:27:32;;;;;;;19.42;15.30;;;;;;;13.08;91.63;101203.19;4930407;29;20069;-53
2023/07/21 00:29:58;;;;;;;21.30;15.80;;;;;;;13.08;91.97;101196.22;4933749;29;20451;-51
2023/07/21 00:32:23;;;;;;;22.33;15.55;;;;;;;13.09;91.39;101190.13;4932684;29;20035;-52
2023/07/21 00:34:51;;;;;;;22.23;14.60;;;;;;;13.15;91.80;101181.50;4932986;29;20043;-52
2023/07/21 00:37:17;;;;;;;19.90;15.20;;;;;;;13.23;91.65;101185.16;4933295;29;20094;-52
2023/07/21 00:39:44;;;;;;;21.10;16.35;;;;;;;13.25;92.08;101182.56;4934397;29;20581;-52
2023/07/21 00:42:10;;;;;;;20.63;15.35;;;;;;;13.30;91.79;101186.16;4933810;29;20098;-52
2023/07/21 00:44:36;;;;;;;18.58;14.50;;;;;;;13.32;91.46;101176.59;4933078;29;20036;-52
2023/07/21 00:47:01;;;;;;;19.75;14.85;;;;;;;13.34;91.13;101183.66;4931449;29;20047;-52
2023/07/21 00:49:27;;;;;;;20.10;14.93;;;;;;;13.33;90.52;101176.63;4926053;29;20031;-52
2023/07/21 00:51:52;;;;;;;18.77;14.00;;;;;;;13.35;90.03;101176.69;4916701;29;20557;-52
2023/07/21 00:54:18;;;;;;;22.85;13.90;;;;;;;13.35;89.58;101174.06;4922998;29;20111;-52
2023/07/21 00:56:45;;;;;;;16.20;12.98;;;;;;;13.34;89.15;101180.13;4928606;29;20035;-52
2023/07/21 00:59:10;;;;;;;19.80;14.40;;;;;;;13.30;88.74;101184.41;4922026;29;20086;-52
2023/07/21 01:01:35;;;;;;;18.00;13.55;;;;;;;13.31;88.62;101173.09;4930611;29;20023;-52
2023/07/21 01:04:02;;;;;;;18.80;14.00;;;;;;;13.31;88.58;101167.88;4920949;29;20243;-52
2023/07/21 01:06:29;;;;;;;16.40;13.52;;;;;;;13.33;88.01;101162.66;4915222;29;20032;-52
2023/07/21 01:09:01;;;;;;;19.48;14.65;;;;;;;13.33;88.29;101165.28;4919621;29;20482;-52
2023/07/21 01:11:28;;;;;;;18.58;14.05;;;;;;;13.33;88.29;101166.16;4918398;29;20082;-51
2023/07/21 01:13:56;;;;;;;20.27;14.23;;;;;;;13.31;88.36;101156.50;4927360;29;20110;-51
2023/07/21 01:16:23;;;;;;;20.77;14.30;;;;;;;13.32;88.28;101160.88;4912730;29;20028;-52
2023/07/21 01:18:49;;;;;;;19.83;14.85;;;;;;;13.32;87.97;101163.50;4908715;29;20032;-52
2023/07/21 01:21:35;;;;;;;19.33;14.27;;;;;;;13.29;87.78;101159.09;4915295;29;20059;-51
2023/07/21 01:24:10;;;;;;;17.63;13.32;;;;;;;13.23;87.93;101153.75;4916974;29;20029;-52
2023/07/21 01:26:39;;;;;;;19.50;14.35;;;;;;;13.14;87.67;101153.59;4920773;29;21869;-52
2023/07/21 01:29:07;;;;;;;17.75;13.68;;;;;;;13.07;87.79;101150.00;4911393;29;20556;-52
2023/07/21 01:31:35;;;;;;;18.30;13.90;;;;;;;13.08;87.75;101143.00;4912511;29;20028;-52
2023/07/21 01:34:02;;;;;;;19.55;14.18;;;;;;;13.08;87.79;101140.38;4914721;29;20034;-52
2023/07/21 01:36:28;;;;;;;21.08;15.68;;;;;;;13.08;88.01;101148.25;4918905;29;20605;-52
2023/07/21 01:38:54;;;;;;;19.02;14.48;;;;;;;13.07;87.91;101136.03;4913862;29;20107;-52
2023/07/21 01:41:20;;;;;;;18.95;14.43;;;;;;;13.05;87.93;101138.63;4918836;29;20380;-52
2023/07/21 01:43:46;;;;;;;18.85;13.88;;;;;;;13.00;87.25;101135.03;4914436;29;20043;-52
2023/07/21 01:46:12;;;;;;;18.88;13.88;;;;;;;12.98;87.27;101137.63;4914215;29;20040;-52
2023/07/21 01:48:37;;;;;;;20.90;14.48;;;;;;;13.00;87.10;101135.03;4926637;29;20272;-52
2023/07/21 01:51:05;;;;;;;20.08;15.23;;;;;;;12.98;87.29;101134.13;4932604;29;20028;-52
2023/07/21 01:53:35;;;;;;;19.95;14.60;;;;;;;12.91;87.33;101127.91;4923923;29;20060;-52
2023/07/21 01:56:21;;;;;;;19.70;14.35;;;;;;;12.87;87.86;101124.38;4932278;29;20514;-52
2023/07/21 01:58:47;;;;;;;21.55;15.13;;;;;;;12.83;87.85;101126.88;4929119;29;20093;-51
2023/07/21 02:01:14;;;;;;;22.55;15.88;;;;;;;12.81;87.75;101128.59;4928463;29;20075;-52
2023/07/21 02:03:40;;;;;;;22.48;15.27;;;;;;;12.77;88.64;101124.13;4931068;29;20035;-52
2023/07/21 02:06:14;;;;;;;22.60;17.15;;;;;;;12.72;90.24;101125.81;4919541;29;20047;-52
2023/07/21 02:08:39;;;;;;;21.50;16.13;;;;;;;12.68;90.27;101123.09;4929116;29;20031;-52
2023/07/21 02:11:04;;;;;;;21.52;16.27;;;;;;;12.68;89.50;101123.09;4927991;29;21701;-52
2023/07/21 02:13:31;;;;;;;21.15;14.73;;;;;;;12.61;88.87;101121.22;4930592;29;20127;-52
2023/07/21 02:15:57;;;;;;;22.00;15.38;;;;;;;12.55;88.79;101121.09;4931228;29;20494;-51
2023/07/21 02:18:22;;;;;;;23.55;14.88;;;;;;;12.48;88.55;101114.91;4930866;29;20035;-52
2023/07/21 02:20:47;;;;;;;21.10;15.00;;;;;;;12.46;88.72;101116.56;4929521;29;20039;-52
2023/07/21 02:23:13;;;;;;;20.20;15.15;;;;;;;12.41;88.40;101114.72;4931650;29;20043;-52
2023/07/21 02:25:38;;;;;;;22.33;15.07;;;;;;;12.39;88.32;101113.81;4929387;29;20042;-51
2023/07/21 02:28:03;;;;;;;21.95;15.27;;;;;;;12.33;87.84;101115.44;4931110;29;20110;-52
2023/07/21 02:30:29;;;;;;;21.75;15.43;;;;;;;12.32;88.75;101113.66;4925616;29;20039;-52
2023/07/21 02:32:54;;;;;;;22.20;15.95;;;;;;;12.35;88.60;101116.38;4928919;29;20023;-52
2023/07/21 02:35:19;;;;;;;19.52;14.93;;;;;;;12.38;88.62;101109.44;4930127;29;20032;-52
2023/07/21 02:37:45;;;;;;;21.70;15.23;;;;;;;12.39;88.13;101106.84;4930258;29;20062;-51
2023/07/21 02:40:12;;;;;;;22.85;15.80;;;;;;;12.36;88.23;101109.41;4929851;29;20027;-52
2023/07/21 02:42:37;;;;;;;20.00;14.63;;;;;;;12.33;88.04;101109.34;4928069;29;20047;-51
2023/07/21 02:45:04;;;;;;;22.17;15.98;;;;;;;12.28;88.15;101103.13;4931370;29;20031;-52
2023/07/21 02:47:30;;;;;;;22.08;15.85;;;;;;;12.14;90.32;101098.50;4930210;29;20482;-52
2023/07/21 02:49:56;;;;;;;24.90;16.80;;;;;;;12.00;91.33;101099.94;4929951;29;20036;-51
2023/07/21 02:52:22;;;;;;;26.40;17.50;;;;;;;11.87;92.97;101098.75;4930288;29;20059;-52
2023/07/21 02:54:47;;;;;;;25.23;17.38;;;;;;;11.89;93.09;101107.50;4927384;29;20405;-52
2023/07/21 02:57:13;;;;;;;22.77;16.85;;;;;;;11.93;92.62;101106.75;4929797;29;20027;-52
2023/07/21 02:59:39;;;;;;;19.98;15.25;;;;;;;11.95;91.43;101107.69;4931089;29;20402;-52
2023/07/21 03:02:05;;;;;;;24.73;16.13;;;;;;;11.98;91.18;101099.91;4928854;29;20032;-52
2023/07/21 03:04:34;;;;;;;23.30;15.73;;;;;;;12.03;90.62;101104.34;4911025;29;20027;-51
2023/07/21 03:07:00;;;;;;;21.00;15.07;;;;;;;12.04;89.87;101095.69;4930686;29;20486;-52
2023/07/21 03:09:26;;;;;;;22.48;15.63;;;;;;;11.98;89.90;101110.34;4931735;29;20062;-51
2023/07/21 03:11:52;;;;;;;21.92;15.88;;;;;;;11.97;89.70;101100.75;4931347;29;20024;-52
2023/07/21 03:14:17;;;;;;;22.25;15.48;;;;;;;11.94;89.60;101105.03;4929359;29;20099;-52
2023/07/21 03:16:43;;;;;;;18.83;13.68;;;;;;;11.91;89.11;101105.81;4931612;29;20036;-52
2023/07/21 03:19:09;;;;;;;20.73;14.70;;;;;;;11.88;88.92;101105.75;4929705;29;20467;-51
2023/07/21 03:21:34;;;;;;;22.58;15.23;;;;;;;11.79;89.23;101095.97;4931607;29;20586;-51
2023/07/21 03:24:00;;;;;;;21.77;15.93;;;;;;;11.79;89.26;101102.94;4923742;29;20075;-52
2023/07/21 03:26:28;;;;;;;21.25;15.27;;;;;;;11.79;89.09;101102.94;4925782;29;20031;-51
2023/07/21 03:28:55;;;;;;;19.45;14.55;;;;;;;11.72;88.63;101099.28;4932478;29;20031;-51
2023/07/21 03:31:21;;;;;;;21.63;14.40;;;;;;;11.74;88.69;101102.81;4915719;29;20023;-51
2023/07/21 03:33:46;;;;;;;21.45;15.27;;;;;;;11.72;89.22;101098.41;4932698;29;20030;-52
2023/07/21 03:36:12;;;;;;;21.65;15.38;;;;;;;11.69;90.31;101098.31;4932082;29;20027;-51
2023/07/21 03:38:37;;;;;;;22.73;15.05;;;;;;;11.66;91.20;101102.63;4932890;29;20032;-51
2023/07/21 03:41:05;;;;;;;20.70;15.35;;;;;;;11.56;91.96;101102.41;4931828;29;20032;-52
2023/07/21 03:43:30;;;;;;;22.02;15.93;;;;;;;11.41;92.68;101100.28;4922781;29;20046;-52
2023/07/21 03:46:00;;;;;;;22.30;16.05;;;;;;;11.36;93.73;101104.53;4922789;29;20039;-51
2023/07/21 03:48:26;;;;;;;;;;;;;;;11.43;91.22;101103.84;4924495;29;20111;-51
2023/07/21 03:51:05;;;;;;;23.58;15.35;;;;;;;11.47;92.96;101108.25;4923647;29;20606;-51
2023/07/21 03:53:31;;;;;;;22.75;16.08;;;;;;;11.51;92.36;101102.25;4925253;29;20008;-51
2023/07/21 03:55:56;;;;;;;23.58;15.82;;;;;;;11.51;92.04;101104.88;4931182;29;20027;-51
2023/07/21 03:58:22;;;;;;;22.42;15.18;;;;;;;11.49;92.00;101090.94;4934094;29;20505;-51
2023/07/21 04:00:47;;;;;;;19.13;15.00;;;;;;;11.43;91.96;101112.53;4930188;29;20479;-51
2023/07/21 04:03:14;;;;;;;21.92;14.57;;;;;;;11.38;91.80;101108.03;4932234;29;20055;-51
2023/07/21 04:05:40;;;;;;;26.40;16.08;;;;;;;11.32;92.53;101103.56;4933501;29;20027;-51
2023/07/21 04:08:05;;;;;;;24.40;17.08;;;;;;;11.19;93.89;101097.16;4934817;29;20023;-51
2023/07/21 04:10:31;;;;;;;27.75;16.92;;;;;;;11.08;94.77;101090.78;4933735;29;20027;-50
2023/07/21 04:12:57;;;;;;;24.85;16.73;;;;;;;10.97;95.58;101087.91;4930876;29;20046;-51
2023/07/21 04:15:25;;;;;;;27.10;17.75;;;;;;;10.89;96.50;101087.72;4933571;29;20106;-51
2023/07/21 04:17:51;;;;;;;25.90;17.67;;;;;;;10.93;97.03;101086.97;4931553;29;20034;-51
2023/07/21 04:20:16;;;;;;;27.40;18.08;;;;;;;11.00;97.08;101087.97;4932847;29;20035;-51
2023/07/21 04:22:41;;;;;;;25.27;16.40;;;;;;;11.08;96.51;101082.94;4934248;29;20031;-51
2023/07/21 04:25:07;;;;;;;22.55;15.95;;;;;;;11.07;95.78;101081.19;4933677;29;20474;-50
2023/07/21 04:27:33;;;;;;;23.52;16.23;;;;;;;11.04;96.39;101075.91;4932040;29;20027;-50
2023/07/21 04:29:59;;;;;;;26.23;15.63;;;;;;;11.06;96.90;101075.09;4933881;29;20527;-50
2023/07/21 04:32:25;;;;;;;23.80;16.25;;;;;;;11.08;96.89;101076.03;4932864;29;20092;-51
2023/07/21 04:34:50;;;;;;;24.30;16.63;;;;;;;11.05;97.30;101075.94;4931877;29;20815;-51
2023/07/21 04:37:15;;;;;;;25.35;17.50;;;;;;;11.05;97.69;101072.44;4928837;29;20028;-49
2023/07/21 04:39:40;;;;;;;28.00;17.38;;;;;;;11.11;98.06;101070.88;4932785;29;20043;-50
2023/07/21 04:42:06;;;;;;;26.73;16.95;;;;;;;11.21;97.81;101073.72;4932236;29;20031;-51
2023/07/21 04:44:31;;;;;;;26.52;16.85;;;;;;;11.27;97.67;101079.97;4932673;29;20028;-51
2023/07/21 04:46:56;;;;;;;24.85;16.02;;;;;;;11.33;97.24;101075.75;4930585;29;20168;-51
2023/07/21 04:49:22;;;;;;;26.23;16.90;;;;;;;11.39;97.03;101078.50;4931544;29;20040;-50
2023/07/21 04:51:47;;;;;;;27.75;17.13;;;;;;;11.44;96.83;101066.44;4933810;29;20023;-50
2023/07/21 04:54:12;;;;;;;31.08;18.20;;;;;;;11.45;97.97;101063.84;4931821;29;20529;-51
2023/07/21 04:56:39;;;;;;;26.92;17.75;;;;;;;11.49;97.92;101065.69;4933387;29;20027;-52
2023/07/21 04:59:04;;;;;;;28.73;18.27;;;;;;;11.56;97.87;101066.72;4931116;29;20020;-52
2023/07/21 05:01:31;;;;;;;27.75;18.42;;;;;;;11.61;97.76;101067.69;4931739;29;20074;-50
2023/07/21 05:03:57;;;;;;;30.27;18.25;;;;;;;11.68;97.89;101065.25;4929757;29;20023;-52
2023/07/21 05:06:23;;;;;;;29.48;18.50;;;;;;;11.74;97.70;101068.88;4930671;29;20035;-51
2023/07/21 05:08:48;;;;;;;32.90;19.33;;;;;;;11.81;97.62;101064.69;4932439;29;20043;-51
2023/07/21 05:11:14;;;;;;;30.48;18.52;;;;;;;11.88;97.67;101063.09;4932296;29;20027;-52
2023/07/21 05:13:39;;;;;;;26.65;18.38;;;;;;;11.94;97.49;101066.72;4932536;29;20641;-50
2023/07/21 05:16:04;;;;;;;29.25;19.23;;;;;;;11.98;97.88;101063.34;4932417;29;20035;-51
2023/07/21 05:18:30;;;;;;;33.05;19.55;;;;;;;12.02;98.73;101068.63;4929604;29;20597;-52
2023/07/21 05:20:55;;;;;;;28.02;18.85;;;;;;;12.06;98.26;101065.22;4931467;29;20545;-51
2023/07/21 05:23:20;;;;;;;34.50;19.92;;;;;;;12.12;98.31;101067.97;4930748;29;20024;-52
2023/07/21 05:25:45;;;;;;;31.05;20.10;;;;;;;12.16;99.69;101064.56;4931591;29;20024;-51
2023/07/21 05:28:12;;;;;;;31.60;19.70;;;;;;;12.22;100.00;101062.06;4931568;29;20066;-51
2023/07/21 05:30:41;;;;;;;37.88;21.38;;;;;;;12.27;100.00;101063.06;4914566;29;20494;-51
2023/07/21 05:33:06;;;;;;;34.67;21.43;;;;;;;12.32;100.00;101071.00;4930845;29;20023;-51
2023/07/21 05:35:31;;;;;;;38.60;23.35;;;;;;;12.37;100.00;101069.38;4913047;29;20115;-51
2023/07/21 05:37:57;;;;;;;47.75;30.90;;;;;;;12.47;100.00;101081.75;4929719;29;20122;-51
2023/07/21 05:40:22;;;;;;;45.58;29.95;;;;;;;12.54;100.00;101072.28;4930685;29;20031;-52
2023/07/21 05:42:47;;;;;;;44.22;29.70;;;;;;;12.61;100.00;101074.16;4931542;29;20016;-51
2023/07/21 05:45:13;;;;;;;43.03;27.17;;;;;;;12.68;100.00;101062.09;4913621;29;20107;-51
2023/07/21 05:47:38;;;;;;;48.17;28.80;;;;;;;12.76;100.00;101067.47;4926690;29;20048;-52
2023/07/21 05:50:04;;;;;;;44.15;29.75;;;;;;;12.86;100.00;101064.16;4930456;29;20031;-52
2023/07/21 05:52:29;;;;;;;47.45;28.75;;;;;;;12.94;100.00;101072.16;4930258;29;20027;-51
2023/07/21 05:54:54;;;;;;;47.72;30.40;;;;;;;13.03;100.00;101073.19;4928318;29;20398;-53
2023/07/21 05:57:20;;;;;;;50.13;31.25;;;;;;;13.11;100.00;101072.44;4931352;29;20514;-52
2023/07/21 05:59:45;;;;;;;54.65;33.50;;;;;;;13.20;100.00;101077.81;4932010;29;20019;-52
2023/07/21 06:02:11;;;;;;;52.72;31.52;;;;;;;13.26;100.00;101070.06;4929009;29;20106;-52
2023/07/21 06:04:37;;;;;;;48.95;32.25;;;;;;;13.33;100.00;101069.31;4930307;29;20034;-53
2023/07/21 06:07:02;;;;;;;41.88;26.27;;;;;;;13.41;100.00;101076.44;4923997;29;20028;-52
2023/07/21 06:09:28;;;;;;;51.22;31.45;;;;;;;13.47;100.00;101071.28;4928989;29;20403;-52
2023/07/21 06:11:54;;;;;;;52.97;33.53;;;;;;;13.56;100.00;101068.81;4924743;29;20023;-52
2023/07/21 06:14:19;;;;;;;45.53;28.13;;;;;;;13.64;100.00;101080.28;4927880;29;20817;-52
2023/07/21 06:16:44;;;;;;;41.10;25.75;;;;;;;13.71;100.00;101076.03;4925070;29;20473;-52
2023/07/21 06:19:10;;;;;;;48.60;29.85;;;;;;;13.81;100.00;101072.66;4931926;29;20035;-52
2023/07/21 06:21:35;;;;;;;55.85;32.10;;;;;;;13.97;100.00;101072.88;4933574;29;20606;-53
2023/07/21 06:24:01;;;;;;;51.75;31.02;;;;;;;14.04;100.00;101075.59;4914759;29;20035;-52
2023/07/21 06:26:27;;;;;;;47.88;29.15;;;;;;;14.12;100.00;101077.44;4931136;29;20123;-52
2023/07/21 06:28:52;;;;;;;44.95;28.17;;;;;;;14.21;100.00;101077.56;4926111;29;20705;-53
2023/07/21 06:31:18;;;;;;;50.58;30.10;;;;;;;14.30;100.00;101075.06;4912025;29;20094;-54
2023/07/21 06:33:43;;;;;;;47.42;29.60;;;;;;;14.37;100.00;101074.25;4913122;29;20027;-53
2023/07/21 06:36:08;;;;;;;48.75;28.58;;;;;;;14.46;100.00;101070.00;4931658;29;20031;-53
2023/07/21 06:38:34;;;;;;;37.47;22.30;;;;;;;14.54;97.25;101069.22;4931012;29;20028;-53
2023/07/21 06:41:00;;;;;;;47.65;27.83;;;;;;;14.66;99.31;101067.63;4925309;29;20043;-53
2023/07/21 06:43:26;;;;;;;49.75;28.65;;;;;;;14.75;99.77;101068.56;4925116;29;20031;-53
2023/07/21 06:45:51;;;;;;;41.92;26.35;;;;;;;14.84;97.68;101069.53;4930731;29;20035;-53
2023/07/21 06:48:16;;;;;;;46.03;27.33;;;;;;;14.93;98.19;101065.28;4914288;29;20047;-53
2023/07/21 06:50:42;;;;;;;47.15;28.50;;;;;;;15.01;98.33;101059.22;4932413;29;20039;-52
2023/07/21 06:53:07;;;;;;;51.67;28.73;;;;;;;15.10;97.81;101068.00;4930751;29;20024;-53
2023/07/21 06:55:33;;;;;;;46.70;27.30;;;;;;;15.19;97.51;101068.97;4930025;29;20039;-52
2023/07/21 06:57:59;;;;;;;44.60;27.48;;;;;;;15.27;97.47;101054.16;4929255;29;20122;-52
2023/07/21 07:00:24;;;;;;;45.30;25.95;;;;;;;15.34;95.83;101061.22;4930211;29;20040;-53
2023/07/21 07:02:50;;;;;;;43.67;26.52;;;;;;;15.39;96.06;101062.13;4913653;29;20031;-53
2023/07/21 07:05:16;;;;;;;45.00;25.25;;;;;;;15.42;94.25;101064.75;4931204;29;20227;-53
2023/07/21 07:07:42;;;;;;;43.35;25.25;;;;;;;15.46;92.84;101063.91;4932423;29;20542;-53
2023/07/21 07:10:07;;;;;;;42.22;26.40;;;;;;;15.51;93.31;101065.69;4930010;29;20091;-53
2023/07/21 07:12:33;;;;;;;43.15;26.48;;;;;;;15.54;92.65;101055.22;4929314;29;20517;-53
2023/07/21 07:14:58;;;;;;;43.60;26.85;;;;;;;15.57;92.13;101056.13;4929171;29;20031;-53
2023/07/21 07:17:24;;;;;;;42.83;27.23;;;;;;;15.62;92.73;101058.78;4930585;29;20036;-53
2023/07/21 07:19:50;;;;;;;41.25;23.98;;;;;;;15.67;91.63;101053.53;4929990;29;20032;-53
2023/07/21 07:22:15;;;;;;;42.42;26.80;;;;;;;15.72;91.55;101047.44;4929438;29;20035;-53
2023/07/21 07:24:40;;;;;;;45.10;26.83;;;;;;;15.81;92.24;101058.06;4927974;29;20083;-54
2023/07/21 07:27:09;;;;;;;44.13;27.25;;;;;;;15.92;92.61;101046.72;5113730;23;20413;-96
2023/07/21 07:29:40;;;;;;;44.00;27.23;;;;;;;16.04;90.82;101046.78;4944602;29;20460;-96
2023/07/21 07:32:39;;;;;;;;;;;;;;;;;;;;;
2023/07/21 07:34:59;;;;;;;34.28;21.88;;;;;;;16.31;87.63;101051.25;4913876;29;20506;-53
2023/07/21 07:37:30;;;;;;;32.97;21.58;;;;;;;16.44;85.95;101049.53;4911200;29;20032;-54
2023/07/21 07:39:55;;;;;;;32.05;20.67;;;;;;;16.63;85.35;101047.81;4913321;29;20090;-53
2023/07/21 07:42:23;;;;;;;30.45;19.83;;;;;;;16.71;84.01;101053.09;4915913;29;20440;-53
2023/07/21 07:44:49;;;;;;;32.45;20.30;;;;;;;16.78;81.91;101057.50;4915103;29;20402;-53
2023/07/21 07:47:14;;;;;;;31.55;17.30;;;;;;;16.84;81.29;101059.25;4914837;29;20028;-53
2023/07/21 07:49:40;;;;;;;26.98;18.58;;;;;;;16.91;81.63;101062.81;4917384;29;20039;-53
2023/07/21 07:52:08;;;;;;;37.15;19.70;;;;;;;16.93;82.62;101061.03;4912310;29;20097;-53
2023/07/21 07:54:35;;;;;;;27.67;19.27;;;;;;;17.01;82.80;101060.16;4908699;29;20082;-53
2023/07/21 07:57:00;;;;;;;29.77;19.58;;;;;;;17.09;82.91;101068.09;4917371;29;20039;-53
2023/07/21 07:59:26;;;;;;;27.23;17.58;;;;;;;17.20;82.63;101061.03;4916613;29;20028;-53
2023/07/21 08:01:51;;;;;;;25.10;17.75;;;;;;;17.32;81.63;101065.47;4915950;29;20195;-53
2023/07/21 08:04:17;;;;;;;26.27;17.92;;;;;;;17.37;81.61;101057.53;4916753;29;20075;-53
2023/07/21 08:09:18;;;;;;;22.75;15.60;;;;;;;17.50;82.54;101058.41;4902719;23;20055;-53
2023/07/21 08:11:43;;;;;;;21.42;14.95;;;;;;;17.55;81.95;101059.25;4931822;29;20406;-53
2023/07/21 08:14:09;;;;;;;25.70;16.63;;;;;;;17.63;80.97;101052.22;4934589;29;20038;-53
2023/07/21 08:16:36;;;;;;;21.25;15.35;;;;;;;17.68;79.26;101052.22;4935177;29;20019;-54
2023/07/21 08:19:02;;;;;;;22.80;15.45;;;;;;;17.74;79.19;101052.19;4935098;29;20525;-53
2023/07/21 08:21:28;;;;;;;21.40;15.35;;;;;;;17.77;77.44;101041.66;4934822;29;20490;-53
2023/07/21 08:23:54;;;;;;;23.20;15.10;;;;;;;17.83;76.51;101052.19;4934419;29;20038;-53
2023/07/21 08:26:20;;;;;;;23.00;15.52;;;;;;;17.90;77.03;101053.94;4934008;29;20023;-54
2023/07/21 08:28:46;;;;;;;22.42;15.63;;;;;;;18.01;75.08;101047.75;4935445;29;20297;-53
2023/07/21 08:31:11;;;;;;;23.48;15.25;;;;;;;18.04;76.08;101050.38;4934224;29;20047;-54
2023/07/21 08:33:37;;;;;;;22.10;15.30;;;;;;;18.07;75.66;101056.53;4931057;29;20095;-54
2023/07/21 08:36:03;;;;;;;24.65;16.70;;;;;;;18.14;75.67;101062.63;4934508;29;20478;-54
2023/07/21 08:38:29;;;;;;;19.30;13.90;;;;;;;18.23;75.79;101056.44;4931344;29;20151;-54
2023/07/21 08:41:16;;;;;;;21.42;14.13;;;;;;;18.28;74.76;101065.22;4934561;29;20052;-54
2023/07/21 08:43:42;;;;;;;23.48;14.27;;;;;;;18.29;73.92;101052.91;4934967;29;20038;-53
2023/07/21 08:46:09;;;;;;;16.95;12.73;;;;;;;18.39;71.55;101052.88;4935192;29;20036;-54
2023/07/21 08:48:35;;;;;;;18.73;13.45;;;;;;;18.39;71.24;101054.59;4934945;29;20379;-53
2023/07/21 08:51:01;;;;;;;18.88;11.48;;;;;;;18.51;74.82;101061.56;4934084;29;20509;-53
2023/07/21 08:53:27;;;;;;;18.55;13.60;;;;;;;18.69;74.52;101057.97;4934934;29;20035;-54
2023/07/21 08:55:57;;;;;;;23.88;15.20;;;;;;;18.85;73.23;101067.50;4934127;29;20514;-54
2023/07/21 08:58:23;;;;;;;20.85;15.10;;;;;;;18.83;72.60;101056.09;4934760;29;20393;-54
2023/07/21 09:00:49;;;;;;;25.20;15.13;;;;;;;18.78;72.69;101071.09;4935039;29;20031;-54
2023/07/21 09:03:29;;;;;;;21.58;15.10;;;;;;;18.73;73.92;101064.97;4929312;29;20035;-54
2023/07/21 09:05:57;;;;;;;21.15;15.38;;;;;;;18.71;74.27;101064.09;4924833;29;20039;-54
2023/07/21 09:08:27;;;;;;;23.35;15.57;;;;;;;18.75;75.81;101053.50;4924062;29;20052;-54
2023/07/21 09:10:56;;;;;;;19.92;14.38;;;;;;;18.80;74.00;101061.41;4918705;29;20031;-54
2023/07/21 09:13:22;;;;;;;22.75;16.02;;;;;;;18.80;73.33;101057.88;4924168;29;20073;-54
2023/07/21 09:15:56;;;;;;;25.48;16.10;;;;;;;18.93;75.43;101063.09;4927766;29;20102;-54
2023/07/21 09:18:28;;;;;;;22.95;14.10;;;;;;;19.15;74.57;101049.72;4928941;29;20043;-53
2023/07/21 09:20:55;;;;;;;18.83;14.07;;;;;;;19.34;74.16;101054.84;4931435;29;20028;-54
2023/07/21 09:23:21;;;;;;;21.13;13.95;;;;;;;19.46;70.70;101057.34;4931342;29;20040;-54
2023/07/21 09:25:55;;;;;;;18.27;13.05;;;;;;;19.49;72.00;101044.09;4932302;29;20569;-54
2023/07/21 09:28:36;;;;;;;20.75;14.98;;;;;;;19.67;70.42;101040.41;4929786;29;20520;-54
2023/07/21 09:31:01;;;;;;;21.23;14.30;;;;;;;19.84;70.36;101045.50;4934503;29;20024;-54
2023/07/21 09:33:27;;;;;;;21.05;15.02;;;;;;;20.04;71.13;101041.78;4933487;29;20442;-54
2023/07/21 09:36:15;;;;;;;27.25;15.73;;;;;;;20.20;69.56;101032.72;4934177;29;20039;-55
2023/07/21 09:38:42;;;;;;;23.80;15.87;;;;;;;20.38;67.66;101038.66;4932279;29;20090;-54
2023/07/21 09:41:12;;;;;;;30.45;19.77;;;;;;;20.41;64.76;101033.34;4933314;29;20515;-55
2023/07/21 09:43:38;;;;;;;29.92;20.15;;;;;;;20.47;65.18;101026.19;4931013;29;20031;-55
2023/07/21 09:46:07;;;;;;;29.90;20.15;;;;;;;20.71;66.21;101023.22;4933827;29;20023;-54
2023/07/21 09:48:33;;;;;;;30.98;20.23;;;;;;;20.80;64.08;101029.25;4933981;29;20019;-54
2023/07/21 09:51:04;;;;;;;28.50;20.88;;;;;;;20.93;64.38;101019.34;4933252;29;20042;-53
2023/07/21 09:53:41;;;;;;;32.83;20.45;;;;;;;20.90;65.09;101019.38;4931625;29;20434;-54
2023/07/21 09:56:08;;;;;;;31.02;21.95;;;;;;;20.77;62.21;101021.34;4929982;29;20031;-54
2023/07/21 09:58:35;;;;;;;29.05;20.77;;;;;;;20.53;62.98;101021.69;4929112;29;20063;-54
2023/07/21 10:01:04;;;;;;;32.83;21.10;;;;;;;20.62;63.81;101024.19;4929643;29;20020;-54
2023/07/21 10:03:31;;;;;;;28.63;19.13;;;;;;;20.81;62.56;101025.72;4932981;29;20419;-54
2023/07/21 10:05:58;;;;;;;30.27;19.63;;;;;;;20.89;61.19;101012.34;4933804;29;20031;-54
2023/07/21 10:08:27;;;;;;;32.05;20.85;;;;;;;20.93;61.53;101013.13;4924966;29;20055;-54
2023/07/21 10:10:55;;;;;;;30.42;19.65;;;;;;;20.91;61.09;101021.13;4933647;29;20023;-54
2023/07/21 10:13:20;;;;;;;31.30;21.67;;;;;;;20.83;59.13;101023.03;4917909;29;20031;-54
2023/07/21 10:15:46;;;;;;;29.15;20.13;;;;;;;20.50;63.30;101027.91;4916359;29;20019;-54
2023/07/21 10:18:14;;;;;;;31.63;21.98;;;;;;;20.30;63.23;101022.91;4925304;29;20031;-54
2023/07/21 10:20:49;;;;;;;33.30;21.95;;;;;;;20.14;64.89;101028.38;4929210;29;20030;-54
2023/07/21 10:23:16;;;;;;;29.60;21.63;;;;;;;20.00;67.42;101029.47;4929314;29;20035;-55
2023/07/21 10:26:09;;;;;;;32.92;22.63;;;;;;;19.75;69.05;101024.44;4933337;29;20075;-54
2023/07/21 10:28:41;;;;;;;36.22;24.70;;;;;;;19.55;70.35;101027.31;4931400;29;20450;-54
2023/07/21 10:31:24;;;;;;;36.38;24.25;;;;;;;19.37;72.43;101028.38;4928036;29;20532;-54
2023/07/21 10:34:14;;;;;;;37.65;25.30;;;;;;;19.26;72.71;101031.13;4931870;29;20032;-55
2023/07/21 10:36:48;;;;;;;37.33;25.27;;;;;;;19.22;74.24;101040.84;4928513;29;20023;-54
2023/07/21 10:39:20;;;;;;;36.80;25.23;;;;;;;19.17;72.97;101041.78;4926211;29;20047;-53
2023/07/21 10:41:50;;;;;;;40.58;26.13;;;;;;;19.00;72.01;101045.44;4919705;29;20159;-53
2023/07/21 10:44:17;;;;;;;41.78;26.30;;;;;;;18.81;72.66;101055.22;4927197;29;20027;-54
2023/07/21 10:46:44;;;;;;;38.10;26.27;;;;;;;18.71;73.05;101051.78;4917284;29;20031;-54
2023/07/21 10:49:10;;;;;;;43.75;27.98;;;;;;;18.57;74.67;101051.88;4925737;29;20059;-54
2023/07/21 10:51:49;;;;;;;45.03;30.23;;;;;;;18.57;73.80;101049.22;4923167;29;20304;-54
2023/07/21 10:54:16;;;;;;;40.00;28.08;;;;;;;18.55;72.99;101058.94;4926564;29;20400;-54
2023/07/21 10:56:43;;;;;;;30.40;21.83;;;;;;;18.45;70.23;101057.22;4927605;29;20031;-54
2023/07/21 10:59:09;;;;;;;23.30;14.10;;;;;;;18.36;68.25;101054.63;4928727;29;20557;-54
2023/07/21 11:01:44;;;;;;;17.15;11.52;;;;;;;18.18;67.07;101053.84;4928760;29;20103;-54
2023/07/21 11:04:14;;;;;;;16.23;11.90;;;;;;;18.09;68.73;101053.88;4909854;29;20035;-54
2023/07/21 11:06:43;;;;;;;22.52;14.68;;;;;;;18.04;71.78;101055.66;4925177;29;20556;-54
2023/07/21 11:09:12;;;;;;;29.60;19.90;;;;;;;17.98;75.04;101061.81;4927240;29;20555;-55
2023/07/21 11:11:38;;;;;;;;;;;;;;;17.92;74.58;101067.13;4928003;29;20023;-54